Saint-Eleuthere, Canada
Current Conditions -  °F | °C
As of 12:53 AM on Friday 31 Oct 2014 (Local Time) from KFVE Reporting Station
Overcast Overcast  
Wind Chill: 29°   Ceiling: 4900
Heat Index: 35°   Visibility: 10mi
Dew Point: 25°   Wind: 8mph
Humidity: 67%   Direction: 330°NNW
Pressure: 29.92"   Gusts: NA
Location:  47.48°N, 69.28°W
Report Text: KFVE 310453Z AUTO 33007KT 10SM OVC049 02/M04 A2992 RMK AO2 SLP137 T00171039 400830017
Loading
Personal Weather Stations






























Interactive Weather Map
Tropical Storm Tracking
New forecast layout! Learn more

10-Day Weather Forecast

Advertisements
Track Severe Weather on mobile